createdAt,value
2018-09-20T00:02:18.924Z,1.63
2018-09-20T00:04:47.913Z,1.50
2018-09-20T00:07:17.177Z,1.60
2018-09-20T00:09:46.512Z,1.60
2018-09-20T00:12:15.800Z,2.00
2018-09-20T00:14:44.720Z,1.57
2018-09-20T00:17:13.628Z,1.90
2018-09-20T00:19:42.514Z,2.10
2018-09-20T00:22:11.356Z,1.70
2018-09-20T00:24:40.346Z,1.80
2018-09-20T00:27:09.510Z,1.60
2018-09-20T00:29:38.383Z,1.60
2018-09-20T00:32:07.522Z,1.57
2018-09-20T00:34:36.452Z,1.97
2018-09-20T00:37:05.396Z,1.60
2018-09-20T00:39:34.236Z,1.67
2018-09-20T00:42:03.384Z,1.60
2018-09-20T00:44:32.690Z,1.90
2018-09-20T00:47:02.151Z,1.80
2018-09-20T00:49:31.189Z,1.90
2018-09-20T00:52:00.058Z,1.80
2018-09-20T00:54:28.903Z,1.80
2018-09-20T00:56:57.865Z,1.73
2018-09-20T00:59:26.770Z,1.97
2018-09-20T01:01:55.735Z,1.83
2018-09-20T01:04:24.701Z,1.97
2018-09-20T01:06:53.684Z,1.87
2018-09-20T01:09:22.615Z,1.60
2018-09-20T01:11:51.592Z,1.70
2018-09-20T01:14:20.485Z,1.60
2018-09-20T01:16:49.464Z,1.60
2018-09-20T01:19:18.329Z,1.67
2018-09-20T01:21:47.180Z,1.80
2018-09-20T01:24:16.156Z,1.70
2018-09-20T01:26:45.076Z,1.67
2018-09-20T01:29:13.976Z,1.53
2018-09-20T01:31:42.821Z,1.43
2018-09-20T01:34:11.749Z,2.03
2018-09-20T01:36:41.024Z,2.10
2018-09-20T01:39:13.652Z,1.60
2018-09-20T01:41:42.628Z,1.73
2018-09-20T01:44:12.209Z,1.50
2018-09-20T01:46:41.152Z,1.70
2018-09-20T01:49:10.583Z,1.70
2018-09-20T01:51:39.768Z,2.10
2018-09-20T01:54:09.087Z,2.00
2018-09-20T01:56:37.967Z,1.83
2018-09-20T01:59:06.823Z,1.90
2018-09-20T02:01:35.788Z,2.07
2018-09-20T02:04:04.663Z,1.83
2018-09-20T02:06:34.056Z,1.90
2018-09-20T02:09:03.056Z,1.57
2018-09-20T02:11:32.032Z,2.00
2018-09-20T02:14:00.936Z,1.60
2018-09-20T02:16:30.013Z,1.83
2018-09-20T02:18:59.208Z,1.77
2018-09-20T02:21:28.176Z,1.90
2018-09-20T02:23:57.106Z,1.90
2018-09-20T02:26:26.034Z,1.70
2018-09-20T02:28:55.021Z,1.80
2018-09-20T02:31:24.068Z,1.80
2018-09-20T02:33:53.178Z,1.80
2018-09-20T02:36:22.063Z,2.10
2018-09-20T02:38:51.076Z,2.13
2018-09-20T02:41:20.368Z,1.83
2018-09-20T02:43:49.917Z,3.10
2018-09-20T02:46:18.872Z,3.20
2018-09-20T02:48:47.916Z,3.53
2018-09-20T02:51:16.947Z,3.37
2018-09-20T02:53:45.896Z,3.33
2018-09-20T02:56:14.743Z,3.50
2018-09-20T02:58:43.848Z,3.33
2018-09-20T03:01:12.848Z,3.77
2018-09-20T03:03:41.789Z,3.70
2018-09-20T03:06:10.627Z,3.57
2018-09-20T03:08:39.477Z,4.30
2018-09-20T03:11:08.528Z,4.10
2018-09-20T03:13:37.509Z,4.43
2018-09-20T03:16:06.520Z,3.67
2018-09-20T03:18:35.512Z,4.37
2018-09-20T03:21:04.376Z,4.23
2018-09-20T03:23:33.413Z,5.17
2018-09-20T03:26:02.369Z,5.47
2018-09-20T03:28:31.295Z,6.00
2018-09-20T03:31:00.776Z,5.40
2018-09-20T03:33:29.812Z,6.10
2018-09-20T03:35:58.683Z,5.40
2018-09-20T03:38:27.612Z,5.23
2018-09-20T03:40:56.627Z,5.50
2018-09-20T03:43:25.924Z,5.83
2018-09-20T03:45:54.952Z,6.80
2018-09-20T03:48:23.836Z,6.67
2018-09-20T03:50:52.665Z,8.40
2018-09-20T03:53:21.616Z,8.00
2018-09-20T03:55:50.563Z,6.90
2018-09-20T03:58:19.461Z,7.80
2018-09-20T04:00:48.370Z,7.40
2018-09-20T04:03:17.336Z,8.27
2018-09-20T04:05:46.584Z,8.40
2018-09-20T04:08:15.586Z,7.13
2018-09-20T04:10:44.522Z,7.30
2018-09-20T04:13:13.740Z,8.43
2018-09-20T04:15:42.821Z,7.37
2018-09-20T04:18:11.806Z,8.73
2018-09-20T04:20:41.102Z,8.53
2018-09-20T04:23:10.412Z,8.90
2018-09-20T04:25:39.438Z,9.60
2018-09-20T04:28:08.431Z,10.50
2018-09-20T04:30:37.639Z,9.07
2018-09-20T04:33:06.610Z,8.43
2018-09-20T04:35:35.440Z,7.40
2018-09-20T04:38:04.280Z,7.70
2018-09-20T04:40:33.332Z,28.73
2018-09-20T04:43:02.243Z,10.07
2018-09-20T04:45:31.083Z,9.07
2018-09-20T04:48:00.476Z,22.97
2018-09-20T04:50:30.160Z,7.50
2018-09-20T04:52:59.112Z,7.40
2018-09-20T04:55:28.492Z,8.43
2018-09-20T04:57:57.950Z,8.63
2018-09-20T05:00:27.205Z,8.20
2018-09-20T05:02:56.228Z,9.30
2018-09-20T05:05:25.152Z,9.17
2018-09-20T05:07:53.995Z,8.20
2018-09-20T05:10:22.997Z,8.87
2018-09-20T05:12:52.144Z,8.23
2018-09-20T05:15:21.492Z,8.80
2018-09-20T05:17:50.436Z,9.40
2018-09-20T05:20:19.511Z,8.50
2018-09-20T05:22:48.520Z,8.17
2018-09-20T05:25:17.443Z,8.67
2018-09-20T05:27:46.404Z,11.60
2018-09-20T05:30:15.451Z,14.70
2018-09-20T05:32:45.668Z,13.77
2018-09-20T05:35:15.480Z,11.60
2018-09-20T05:37:44.803Z,11.17
2018-09-20T05:40:14.174Z,10.80
2018-09-20T05:42:43.458Z,11.13
2018-09-20T05:45:12.688Z,12.33
2018-09-20T05:47:41.948Z,13.47
2018-09-20T05:50:10.825Z,12.80
2018-09-20T05:52:39.749Z,11.83
2018-09-20T05:55:09.017Z,9.50
2018-09-20T05:57:38.218Z,8.33
2018-09-20T06:00:07.772Z,7.80
2018-09-20T06:02:36.807Z,8.70
2018-09-20T06:05:05.997Z,8.57
2018-09-20T06:07:35.044Z,7.63
2018-09-20T06:10:04.272Z,7.57
2018-09-20T06:12:33.175Z,8.30
2018-09-20T06:15:02.172Z,7.47
2018-09-20T06:17:31.004Z,7.53
2018-09-20T06:19:59.851Z,8.13
2018-09-20T06:22:28.718Z,7.03
2018-09-20T06:24:57.625Z,5.80
2018-09-20T06:27:26.573Z,6.10
2018-09-20T06:29:55.496Z,6.60
2018-09-20T06:32:24.570Z,6.70
2018-09-20T06:34:53.761Z,7.33
2018-09-20T06:37:22.660Z,7.33
2018-09-20T06:39:51.896Z,6.57
2018-09-20T06:42:21.193Z,8.10
2018-09-20T06:44:50.493Z,7.27
2018-09-20T06:47:19.742Z,6.00
2018-09-20T06:49:48.760Z,6.10
2018-09-20T06:52:17.680Z,5.47
2018-09-20T06:54:46.585Z,4.07
2018-09-20T06:57:15.840Z,3.50
2018-09-20T06:59:44.804Z,3.90
2018-09-20T07:02:13.857Z,3.87
2018-09-20T07:04:42.897Z,3.67
2018-09-20T07:07:11.799Z,2.60
2018-09-20T07:09:40.999Z,2.80
2018-09-20T07:12:09.964Z,3.10
2018-09-20T07:14:38.905Z,2.50
2018-09-20T07:17:07.902Z,3.20
2018-09-20T07:19:36.869Z,3.53
2018-09-20T07:22:05.817Z,3.17
2018-09-20T07:24:34.872Z,3.23
2018-09-20T07:27:03.806Z,3.40
2018-09-20T07:29:32.742Z,2.97
2018-09-20T07:32:01.989Z,3.00
2018-09-20T07:34:31.423Z,3.40
2018-09-20T07:37:00.781Z,3.53
2018-09-20T07:39:29.728Z,3.40
2018-09-20T07:41:58.631Z,3.57
2018-09-20T07:44:27.705Z,3.73
2018-09-20T07:46:56.635Z,3.70
2018-09-20T07:49:25.547Z,3.80
2018-09-20T07:51:54.445Z,3.20
2018-09-20T07:54:23.400Z,3.50
2018-09-20T07:56:52.501Z,3.20
2018-09-20T07:59:21.735Z,3.33
2018-09-20T08:01:50.741Z,2.70
2018-09-20T08:04:19.970Z,3.40
2018-09-20T08:06:49.012Z,3.40
2018-09-20T08:09:18.047Z,3.17
2018-09-20T08:11:46.991Z,2.87
2018-09-20T08:14:16.243Z,3.70
2018-09-20T08:16:45.468Z,2.93
2018-09-20T08:19:14.399Z,3.10
2018-09-20T08:21:43.535Z,2.90
2018-09-20T08:24:12.493Z,2.90
2018-09-20T08:26:41.872Z,2.77
2018-09-20T08:29:10.807Z,2.67
2018-09-20T08:31:39.788Z,3.63
2018-09-20T08:34:08.979Z,2.40
2018-09-20T08:36:37.992Z,3.37
2018-09-20T08:39:09.644Z,3.17
2018-09-20T08:41:38.925Z,2.87
2018-09-20T08:44:08.329Z,2.40
2018-09-20T08:46:37.600Z,2.83
2018-09-20T08:49:06.662Z,2.60
2018-09-20T08:51:35.965Z,3.03
2018-09-20T08:54:04.956Z,3.07
2018-09-20T08:56:33.931Z,2.77
2018-09-20T08:59:02.877Z,2.60
2018-09-20T09:01:31.712Z,2.77
2018-09-20T09:04:00.710Z,3.43
2018-09-20T09:06:29.596Z,2.77
2018-09-20T09:08:58.847Z,2.73
2018-09-20T09:11:27.739Z,3.73
2018-09-20T09:13:56.737Z,2.83
2018-09-20T09:16:25.764Z,2.50
2018-09-20T09:18:55.045Z,2.90
2018-09-20T09:21:23.956Z,2.90
2018-09-20T09:23:52.904Z,2.53
2018-09-20T09:26:22.279Z,3.67
2018-09-20T09:28:51.212Z,3.87
2018-09-20T09:31:20.127Z,3.40
2018-09-20T09:33:49.040Z,3.10
2018-09-20T09:36:18.027Z,2.83
2018-09-20T09:38:46.936Z,2.60
2018-09-20T09:41:15.780Z,2.97
2018-09-20T09:43:44.796Z,2.97
2018-09-20T09:46:13.756Z,2.80
2018-09-20T09:48:43.086Z,3.10
2018-09-20T09:51:12.304Z,2.43
2018-09-20T09:53:41.228Z,2.57
2018-09-20T09:56:10.316Z,3.30
2018-09-20T09:58:39.263Z,2.70
2018-09-20T10:01:08.172Z,3.13
2018-09-20T10:03:37.604Z,3.07
2018-09-20T10:06:06.653Z,2.83
2018-09-20T10:08:35.665Z,2.93
2018-09-20T10:11:05.033Z,2.97
2018-09-20T10:13:33.968Z,2.70
2018-09-20T10:16:02.833Z,2.73
2018-09-20T10:18:31.845Z,2.77
2018-09-20T10:21:00.697Z,2.73
2018-09-20T10:23:29.548Z,2.80
2018-09-20T10:25:58.523Z,3.07
2018-09-20T10:28:27.822Z,3.00
2018-09-20T10:30:56.784Z,2.20
2018-09-20T10:33:25.772Z,2.67
2018-09-20T10:35:54.723Z,2.50
2018-09-20T10:38:23.868Z,3.03
2018-09-20T10:40:53.057Z,2.90
2018-09-20T10:43:21.960Z,2.50
2018-09-20T10:45:51.228Z,2.50
2018-09-20T10:48:20.483Z,2.87
2018-09-20T10:50:49.457Z,2.83
2018-09-20T10:53:18.414Z,2.37
2018-09-20T10:55:47.401Z,2.70
2018-09-20T10:58:16.369Z,2.40
2018-09-20T11:00:45.240Z,2.73
2018-09-20T11:03:14.165Z,2.40
2018-09-20T11:05:43.281Z,2.30
2018-09-20T11:08:12.268Z,2.70
2018-09-20T11:10:41.182Z,2.70
2018-09-20T11:13:10.089Z,2.50
2018-09-20T11:15:39.120Z,3.30
2018-09-20T11:18:08.078Z,2.60
2018-09-20T11:20:37.001Z,3.53
2018-09-20T11:23:06.153Z,3.07
2018-09-20T11:25:35.121Z,3.53
2018-09-20T11:28:04.038Z,3.63
2018-09-20T11:30:33.036Z,2.63
2018-09-20T11:33:02.001Z,2.60
2018-09-20T11:35:31.053Z,2.50
2018-09-20T11:38:00.411Z,3.37
2018-09-20T11:40:29.713Z,2.63
2018-09-20T11:42:58.560Z,3.00
2018-09-20T11:45:27.472Z,2.30
2018-09-20T11:47:56.287Z,3.67
2018-09-20T11:50:25.272Z,2.60
2018-09-20T11:52:54.644Z,2.67
2018-09-20T11:55:23.782Z,2.50
2018-09-20T11:57:53.084Z,2.60
2018-09-20T12:00:22.804Z,2.63
2018-09-20T12:02:53.026Z,2.93
2018-09-20T12:05:22.660Z,2.80
2018-09-20T12:07:51.610Z,2.20
2018-09-20T12:10:20.496Z,3.17
2018-09-20T12:12:49.620Z,2.63
2018-09-20T12:15:18.573Z,3.00
2018-09-20T12:17:47.542Z,2.60
2018-09-20T12:20:16.583Z,2.50
2018-09-20T12:22:45.573Z,2.93
2018-09-20T12:25:14.455Z,3.03
2018-09-20T12:27:43.422Z,3.20
2018-09-20T12:30:12.392Z,2.60
2018-09-20T12:32:41.314Z,2.70
2018-09-20T12:35:10.128Z,3.00
2018-09-20T12:37:40.041Z,3.23
2018-09-20T12:40:09.589Z,2.60
2018-09-20T12:42:38.475Z,2.57
2018-09-20T12:45:07.656Z,2.63
2018-09-20T12:47:36.648Z,2.70
2018-09-20T12:50:05.630Z,2.80
2018-09-20T12:52:34.563Z,2.33
2018-09-20T12:55:03.436Z,2.90
2018-09-20T12:57:32.528Z,2.40
2018-09-20T13:00:01.553Z,2.40
2018-09-20T13:02:30.737Z,2.60
2018-09-20T13:04:59.780Z,2.80
2018-09-20T13:07:28.914Z,2.43
2018-09-20T13:09:57.837Z,2.53
2018-09-20T13:12:26.843Z,2.73
2018-09-20T13:14:55.830Z,2.57
2018-09-20T13:17:24.683Z,2.40
2018-09-20T13:19:53.659Z,2.90
2018-09-20T13:22:22.976Z,2.90
2018-09-20T13:24:52.249Z,3.00
2018-09-20T13:27:21.152Z,2.60
2018-09-20T13:29:50.375Z,2.63
2018-09-20T13:32:19.616Z,2.80
2018-09-20T13:34:48.877Z,2.67
2018-09-20T13:37:18.143Z,2.97
2018-09-20T13:39:47.040Z,2.80
2018-09-20T13:42:15.947Z,2.93
2018-09-20T13:44:45.160Z,2.90
2018-09-20T13:47:15.323Z,2.57
2018-09-20T13:49:44.241Z,2.70
2018-09-20T13:52:13.228Z,2.67
2018-09-20T13:54:42.754Z,3.03
2018-09-20T13:57:11.623Z,3.20
2018-09-20T13:59:40.924Z,3.07
2018-09-20T14:02:09.865Z,2.47
2018-09-20T14:04:38.722Z,3.00
2018-09-20T14:07:07.700Z,2.70
2018-09-20T14:09:37.158Z,2.87
2018-09-20T14:12:06.373Z,3.20
2018-09-20T14:14:35.768Z,2.63
2018-09-20T14:17:05.064Z,2.90
2018-09-20T14:19:34.500Z,3.07
2018-09-20T14:22:03.809Z,2.80
2018-09-20T14:24:32.767Z,2.83
2018-09-20T14:27:01.993Z,3.90
2018-09-20T14:29:31.247Z,3.20
2018-09-20T14:32:00.232Z,3.30
2018-09-20T14:34:29.706Z,3.20
2018-09-20T14:36:58.959Z,3.10
2018-09-20T14:39:28.242Z,3.70
2018-09-20T14:41:57.559Z,2.80
2018-09-20T14:44:26.473Z,3.50
2018-09-20T14:46:55.453Z,3.00
2018-09-20T14:49:24.449Z,3.10
2018-09-20T14:51:53.398Z,2.73
2018-09-20T14:54:22.664Z,3.00
2018-09-20T14:56:51.693Z,2.80
2018-09-20T14:59:20.717Z,2.70
2018-09-20T15:01:49.813Z,3.00
2018-09-20T15:04:18.841Z,3.30
2018-09-20T15:06:48.302Z,2.93
2018-09-20T15:09:17.305Z,3.00
2018-09-20T15:11:46.752Z,3.20
2018-09-20T15:14:15.672Z,3.00
2018-09-20T15:16:44.730Z,2.67
2018-09-20T15:19:13.710Z,3.40
2018-09-20T15:21:42.792Z,3.40
2018-09-20T15:24:11.752Z,3.50
2018-09-20T15:26:40.625Z,3.33
2018-09-20T15:29:09.518Z,3.00
2018-09-20T15:31:38.540Z,3.30
2018-09-20T15:34:07.399Z,3.13
2018-09-20T15:36:36.382Z,3.20
2018-09-20T15:39:08.561Z,3.47
2018-09-20T15:41:37.873Z,3.30
2018-09-20T15:44:06.761Z,3.40
2018-09-20T15:46:35.832Z,3.23
2018-09-20T15:49:04.824Z,3.40
2018-09-20T15:51:34.224Z,3.20
2018-09-20T15:54:03.164Z,3.17
2018-09-20T15:56:32.109Z,3.13
2018-09-20T15:59:00.979Z,3.47
2018-09-20T16:01:30.005Z,3.77
2018-09-20T16:03:58.945Z,3.60
2018-09-20T16:06:27.931Z,3.60
2018-09-20T16:08:56.797Z,3.67
2018-09-20T16:11:25.651Z,4.50
2018-09-20T16:13:54.745Z,3.87
2018-09-20T16:16:23.724Z,3.53
2018-09-20T16:18:52.746Z,3.50
2018-09-20T16:21:21.661Z,3.97
2018-09-20T16:23:50.555Z,3.17
2018-09-20T16:26:19.680Z,3.40
2018-09-20T16:29:06.225Z,3.87
2018-09-20T16:31:51.552Z,3.37
2018-09-20T16:36:35.289Z,3.50
2018-09-20T16:39:13.836Z,3.73
2018-09-20T16:41:44.188Z,3.53
2018-09-20T16:44:13.104Z,3.40
2018-09-20T16:46:41.939Z,3.63
2018-09-20T16:49:10.921Z,3.60
2018-09-20T16:51:39.902Z,3.50
2018-09-20T16:54:08.810Z,3.53
2018-09-20T16:56:37.692Z,3.30
2018-09-20T16:59:06.592Z,3.60
2018-09-20T17:01:35.488Z,4.47
2018-09-20T17:04:04.527Z,3.40
2018-09-20T17:06:33.368Z,3.83
2018-09-20T17:09:02.217Z,3.23
2018-09-20T17:11:31.188Z,3.93
2018-09-20T17:14:00.101Z,3.90
2018-09-20T17:16:29.075Z,4.20
2018-09-20T17:18:58.011Z,4.10
2018-09-20T17:21:27.053Z,4.17
2018-09-20T17:23:55.957Z,3.97
2018-09-20T17:26:24.929Z,3.30
2018-09-20T17:28:53.768Z,3.47
2018-09-20T17:31:23.264Z,3.77
2018-09-20T17:33:52.514Z,3.13
2018-09-20T17:36:22.420Z,3.70
2018-09-20T17:38:52.276Z,3.20
2018-09-20T17:41:24.436Z,3.17
2018-09-20T17:43:58.476Z,3.60
2018-09-20T17:46:27.387Z,4.37
2018-09-20T17:48:56.299Z,4.37
2018-09-20T17:51:25.545Z,4.67
2018-09-20T17:53:54.984Z,4.27
2018-09-20T17:56:24.289Z,3.90
2018-09-20T17:58:53.716Z,3.80
2018-09-20T18:01:22.632Z,4.17
2018-09-20T18:03:51.469Z,3.90
2018-09-20T18:06:20.439Z,4.10
2018-09-20T18:08:49.385Z,4.33
2018-09-20T18:11:18.632Z,4.43
2018-09-20T18:13:47.767Z,3.97
2018-09-20T18:16:16.696Z,4.60
2018-09-20T18:18:45.729Z,4.27
2018-09-20T18:21:14.654Z,4.27
2018-09-20T18:23:43.601Z,4.27
2018-09-20T18:26:12.583Z,3.73
2018-09-20T18:29:17.866Z,4.47
2018-09-20T18:31:47.560Z,4.63
2018-09-20T18:34:16.578Z,4.53
2018-09-20T18:36:45.623Z,4.17
2018-09-20T18:39:15.123Z,4.50
2018-09-20T18:41:45.487Z,4.40
2018-09-20T18:44:14.489Z,4.40
2018-09-20T18:46:43.742Z,3.70
2018-09-20T18:49:12.664Z,3.83
2018-09-20T18:51:41.694Z,4.17
2018-09-20T18:54:10.701Z,3.83
2018-09-20T18:56:39.623Z,4.53
2018-09-20T18:59:08.577Z,4.40
2018-09-20T19:01:37.415Z,4.20
2018-09-20T19:04:06.340Z,4.93
2018-09-20T19:06:35.412Z,4.57
2018-09-20T19:09:04.876Z,4.60
2018-09-20T19:11:33.819Z,5.17
2018-09-20T19:14:02.671Z,4.30
2018-09-20T19:16:31.725Z,4.27
2018-09-20T19:19:00.616Z,4.47
2018-09-20T19:21:29.560Z,4.20
2018-09-20T19:23:58.538Z,4.20
2018-09-20T19:26:27.877Z,3.80
2018-09-20T19:28:57.169Z,4.37
2018-09-20T19:31:26.500Z,5.00
2018-09-20T19:33:56.672Z,3.83
2018-09-20T19:36:25.980Z,4.87
2018-09-20T19:38:54.904Z,4.77
2018-09-20T19:41:24.132Z,3.67
2018-09-20T19:43:53.232Z,4.67
2018-09-20T19:46:22.265Z,4.13
2018-09-20T19:48:51.184Z,4.43
2018-09-20T19:51:20.184Z,4.10
2018-09-20T19:53:49.104Z,4.03
2018-09-20T19:56:18.477Z,3.80
2018-09-20T19:58:48.172Z,4.43
2018-09-20T20:01:17.168Z,4.67
2018-09-20T20:03:46.567Z,4.60
2018-09-20T20:06:15.524Z,4.40
2018-09-20T20:08:44.838Z,4.50
2018-09-20T20:11:13.741Z,4.97
2018-09-20T20:13:42.924Z,5.77
2018-09-20T20:16:11.892Z,4.50
2018-09-20T20:18:41.024Z,4.60
2018-09-20T20:21:10.296Z,5.10
2018-09-20T20:23:39.260Z,4.50
2018-09-20T20:26:08.385Z,4.40
2018-09-20T20:28:37.823Z,4.23
2018-09-20T20:31:06.957Z,4.47
2018-09-20T20:33:36.225Z,4.70
2018-09-20T20:36:05.326Z,4.70
2018-09-20T20:38:34.301Z,4.60
2018-09-20T20:41:03.564Z,4.83
2018-09-20T20:43:32.508Z,4.00
2018-09-20T20:46:01.384Z,4.23
2018-09-20T20:48:30.252Z,4.50
2018-09-20T20:50:59.463Z,4.73
2018-09-20T20:53:28.412Z,4.40
2018-09-20T20:55:57.372Z,4.97
2018-09-20T20:58:26.298Z,4.53
2018-09-20T21:00:55.447Z,5.10
2018-09-20T21:03:24.759Z,4.87
2018-09-20T21:05:53.980Z,4.33
2018-09-20T21:08:23.305Z,4.50
2018-09-20T21:10:52.573Z,4.70
2018-09-20T21:13:21.542Z,4.30
2018-09-20T21:15:50.559Z,5.30
2018-09-20T21:18:19.542Z,5.07
2018-09-20T21:20:48.476Z,5.47
2018-09-20T21:23:17.386Z,4.90
2018-09-20T21:25:46.564Z,4.37
2018-09-20T21:28:15.492Z,4.63
2018-09-20T21:30:44.353Z,5.40
2018-09-20T21:33:13.255Z,6.50
2018-09-20T21:35:42.180Z,4.80
2018-09-20T21:38:11.016Z,5.40
2018-09-20T21:40:40.004Z,5.63
2018-09-20T21:43:08.977Z,5.07
2018-09-20T21:45:37.957Z,6.30
2018-09-20T21:48:07.051Z,5.80
2018-09-20T21:50:35.953Z,5.43
2018-09-20T21:53:04.873Z,5.97
2018-09-20T21:55:33.970Z,6.07
2018-09-20T21:58:03.441Z,5.83
2018-09-20T22:00:33.838Z,5.97
2018-09-20T22:03:03.719Z,5.80
2018-09-20T22:05:34.327Z,5.47
2018-09-20T22:08:03.700Z,5.40
2018-09-20T22:10:32.845Z,5.70
2018-09-20T22:13:01.880Z,6.07
2018-09-20T22:15:31.149Z,5.67
2018-09-20T22:18:00.183Z,6.47
2018-09-20T22:20:30.321Z,6.00
2018-09-20T22:22:59.316Z,5.73
2018-09-20T22:25:28.280Z,5.80
2018-09-20T22:27:57.250Z,6.30
2018-09-20T22:30:26.281Z,5.80
2018-09-20T22:32:55.357Z,5.80
2018-09-20T22:35:24.461Z,5.70
2018-09-20T22:37:53.312Z,5.50
2018-09-20T22:40:22.240Z,6.20
2018-09-20T22:42:51.140Z,6.60
2018-09-20T22:45:20.253Z,6.23
2018-09-20T22:47:49.194Z,6.33
2018-09-20T22:50:18.105Z,6.43
2018-09-20T22:52:46.990Z,6.73
2018-09-20T22:55:16.265Z,6.67
2018-09-20T22:57:45.298Z,7.03
2018-09-20T23:00:16.543Z,6.43
2018-09-20T23:02:45.840Z,6.47
2018-09-20T23:05:15.136Z,6.00
2018-09-20T23:07:44.525Z,6.80
2018-09-20T23:10:13.984Z,6.50
2018-09-20T23:12:42.973Z,6.33
2018-09-20T23:15:12.147Z,6.73
2018-09-20T23:17:41.074Z,5.97
2018-09-20T23:20:10.448Z,5.83
2018-09-20T23:22:39.374Z,6.00
2018-09-20T23:25:08.273Z,5.50
2018-09-20T23:27:37.258Z,6.10
2018-09-20T23:30:06.349Z,5.77
2018-09-20T23:32:35.224Z,6.27
2018-09-20T23:35:04.100Z,6.23
2018-09-20T23:37:33.540Z,6.47
2018-09-20T23:40:02.696Z,5.83
2018-09-20T23:42:32.130Z,6.27
2018-09-20T23:45:01.201Z,6.77
2018-09-20T23:47:30.395Z,6.20
2018-09-20T23:49:59.421Z,6.60
2018-09-20T23:52:28.394Z,6.60
2018-09-20T23:54:57.665Z,6.67
2018-09-20T23:57:26.661Z,7.10
2018-09-20T23:59:56.028Z,7.43
